Latest Weather Observations for Busselton Airport

IDW60801

Issued at 6:05 pm WST Tuesday 23 September 2014 (issued every 30 minutes, with the page automatically refreshed every 10 minutes)

About weather observations | Map of weather stations | Latest weather observations for WA | Other Formats
Station Details ID: 009603 Name: BUSSELTON AERO Lat: -33.69 Lon: 115.40 Height: 16.3 m
Data from the previous 72 hours. | See also: Recent months at Busselton Airport
Date/Time
WST
Temp
°C
App
Temp
°C
Dew
Point
Rel
Hum
%
Delta-T
°C
Wind Press
QNH
hPa
Press
MSL
hPa
Rain
since 9 am
mm
Dir
 
Spd
km/h
Gust
km/h
Spd
kts
Gust
kts
23/06:00pm 14.8 12.6 9.2 69 2.9 W 11 15 6 8 1025.5 1025.5 0.0
23/05:30pm 14.7 13.3 9.5 71 2.7 N 7 9 4 5 1025.2 1025.2 0.0
23/05:00pm 14.8 13.4 9.4 70 2.8 N 7 9 4 5 1025.0 1025.0 0.0
23/04:30pm 15.1 13.5 8.8 66 3.2 N 7 11 4 6 1024.9 1024.9 0.0
23/04:00pm 15.2 13.6 8.7 65 3.3 NNW 7 11 4 6 1025.1 1025.1 0.0
23/03:30pm 15.1 14.2 9.3 68 3.0 WNW 4 7 2 4 1024.9 1024.9 0.0
23/03:00pm 14.7 12.1 9.3 70 2.8 WSW 13 19 7 10 1025.3 1025.3 0.0
23/02:30pm 14.8 12.4 8.7 67 3.1 SW 11 15 6 8 1025.4 1025.4 0.0
23/02:00pm 15.1 13.4 8.4 64 3.4 WSW 7 11 4 6 1025.4 1025.4 0.0
23/01:30pm 14.9 13.2 7.7 62 3.6 NNW 6 9 3 5 1025.5 1025.5 0.0
23/01:00pm 15.1 13.9 7.9 62 3.6 NW 4 7 2 4 1025.7 1025.7 0.0
23/12:30pm 14.7 12.8 7.5 62 3.6 W 7 13 4 7 1026.0 1026.0 0.0
23/12:00pm 14.8 12.9 7.6 62 3.5 W 7 9 4 5 1026.3 1026.3 0.0
23/11:30am 14.6 12.0 7.7 63 3.4 W 11 17 6 9 1026.5 1026.5 0.0
23/11:00am 14.7 12.4 7.3 61 3.6 SW 9 13 5 7 1026.7 1026.7 0.0
23/10:30am 14.6 12.8 7.2 61 3.6 NW 6 11 3 6 1026.5 1026.5 0.0
23/10:00am 14.5 13.6 7.6 63 3.4 W 2 6 1 3 1026.6 1026.6 0.0
23/09:30am 13.8 12.5 7.8 67 3.0 WSW 4 7 2 4 1026.7 1026.7 0.0
23/09:00am 13.2 12.1 8.3 72 2.4 SE 4 7 2 4 1026.8 1026.8 0.0
23/08:30am 12.4 12.2 9.2 81 1.6 CALM 0 0 0 0 1026.8 1026.8 0.0
23/08:00am 11.6 11.4 9.2 85 1.2 CALM 0 0 0 0 1026.7 1026.7 0.0
23/07:30am 11.1 9.9 9.4 89 0.9 ESE 6 7 3 4 1026.4 1026.4 0.0
23/07:00am 10.8 10.6 9.1 89 0.8 CALM 0 0 0 0 1026.4 1026.4 0.0
23/06:30am 10.4 10.2 8.9 90 0.7 CALM 0 0 0 0 1026.1 1026.1 0.0
23/06:00am 10.4 10.2 9.0 91 0.7 NE 0 0 0 0 1025.9 1025.9 0.0
23/05:30am 10.3 10.0 8.8 90 0.7 CALM 0 0 0 0 1025.7 1025.7 0.0
23/05:00am 10.2 9.9 8.7 90 0.7 CALM 0 0 0 0 1025.6 1025.6 0.0
23/04:30am 10.1 9.8 8.5 90 0.8 CALM 0 0 0 0 1025.2 1025.2 0.0
23/04:00am 9.8 9.4 8.3 90 0.7 CALM 0 0 0 0 1025.3 1025.3 0.0
23/03:30am 9.9 9.5 8.4 90 0.7 CALM 0 0 0 0 1025.1 1025.1 0.0
23/03:00am 9.6 9.2 8.1 90 0.7 CALM 0 0 0 0 1025.3 1025.3 0.0
23/02:30am 9.6 9.2 8.2 91 0.7 CALM 0 0 0 0 1025.3 1025.3 0.0
23/02:00am 9.2 8.7 8.0 92 0.6 CALM 0 0 0 0 1025.5 1025.5 0.0
23/01:30am 9.1 7.9 8.1 93 0.5 S 4 7 2 4 1025.7 1025.7 0.0
23/01:00am 8.7 8.2 7.7 93 0.5 CALM 0 0 0 0 1025.9 1025.9 0.0
23/12:30am 8.6 7.3 7.6 93 0.5 WSW 4 7 2 4 1026.1 1026.1 0.0
23/12:00am 8.3 6.5 7.3 93 0.5 SW 6 7 3 4 1026.0 1026.0 0.0
 
Date/Time
WST
Temp
°C
App
Temp
°C
Dew
Point
Rel
Hum
%
Delta-T
°C
Wind Press
QNH
hPa
Press
MSL
hPa
Rain
since 9 am
mm
Dir
 
Spd
km/h
Gust
km/h
Spd
kts
Gust
kts
22/11:30pm 7.7 6.9 6.7 93 0.5 CALM 0 0 0 0 1026.1 1026.1 0.0
22/11:00pm 6.6 5.5 5.3 91 0.6 CALM 0 0 0 0 1025.9 1025.9 0.0
22/10:30pm 6.9 4.7 5.4 90 0.7 SSE 6 9 3 5 1026.4 1026.4 0.0
22/10:00pm 7.5 5.4 5.7 88 0.8 SW 6 6 3 3 1026.6 1026.6 0.0
22/09:30pm 7.9 5.8 5.6 85 1.0 SW 6 7 3 4 1026.5 1026.5 0.0
22/09:00pm 8.8 6.7 6.5 85 1.1 SSW 7 7 4 4 1026.5 1026.5 0.0
22/08:30pm 9.1 6.8 5.9 80 1.5 SW 7 9 4 5 1026.4 1026.4 0.0
22/08:00pm 9.9 7.7 6.3 78 1.7 SSW 7 9 4 5 1026.2 1026.2 0.0
22/07:30pm 10.8 8.2 6.2 73 2.1 SW 9 11 5 6 1025.8 1025.8 0.0
22/07:00pm 11.1 8.1 5.9 70 2.4 SW 11 15 6 8 1025.5 1025.5 0.0
22/06:30pm 12.0 8.7 6.5 69 2.6 SW 13 17 7 9 1025.2 1025.2 0.0
22/06:00pm 12.0 7.5 5.9 66 2.8 SSW 19 24 10 13 1024.9 1024.9 0.0
22/05:30pm 12.4 8.5 5.4 62 3.3 SW 15 19 8 10 1024.4 1024.4 0.0
22/05:00pm 14.6 8.8 4.6 51 4.6 S 24 33 13 18 1024.1 1024.1 0.0
22/04:30pm 15.2 9.9 4.9 50 4.8 SSW 22 28 12 15 1023.7 1023.7 0.0
22/04:00pm 15.6 9.3 4.0 46 5.3 SSW 26 33 14 18 1023.5 1023.5 0.0
22/03:30pm 16.1 10.3 4.5 46 5.4 SSW 24 35 13 19 1023.0 1023.1 0.0
22/03:00pm 16.1 10.7 4.5 46 5.4 SSW 22 30 12 16 1022.9 1023.0 0.0
22/02:30pm 16.0 11.2 5.6 50 5.0 SSW 20 30 11 16 1022.6 1022.7 0.0
22/02:00pm 16.1 11.6 6.3 52 4.8 S 19 28 10 15 1022.5 1022.6 0.0
22/01:30pm 15.9 12.6 8.0 59 4.0 SSW 15 20 8 11 1022.5 1022.6 0.0
22/01:00pm 13.2 9.0 7.4 68 2.8 SSW 19 26 10 14 1022.9 1023.0 0.0
22/12:30pm 15.2 10.1 6.0 54 4.4 S 22 32 12 17 1022.8 1022.9 0.0
22/12:00pm 14.2 10.8 7.8 65 3.2 SW 15 22 8 12 1022.7 1022.8 0.0
22/11:30am 15.2 10.1 7.7 61 3.7 S 24 32 13 17 1022.7 1022.8 0.0
22/11:00am 14.2 9.7 6.3 59 3.8 SSE 19 26 10 14 1023.0 1023.1 0.0
22/10:30am 13.8 8.5 6.9 63 3.3 SSE 24 33 13 18 1023.0 1023.1 0.0
22/10:00am 13.4 9.0 7.6 68 2.8 SSE 20 28 11 15 1023.0 1023.1 0.0
22/09:30am 12.6 7.9 7.7 72 2.4 SE 22 28 12 15 1022.8 1022.9 0.0
22/09:00am 11.2 5.7 7.5 78 1.8 SE 26 32 14 17 1022.4 1022.4 13.8
22/08:30am 10.8 5.8 7.9 82 1.4 S 24 33 13 18 1022.6 1022.7 13.8
22/08:00am 10.7 8.1 7.8 82 1.4 S 11 15 6 8 1022.1 1022.1 13.6
22/07:30am 9.7 7.7 7.0 83 1.3 SW 7 9 4 5 1021.5 1021.5 13.6
22/07:00am 9.2 5.9 6.5 83 1.2 S 13 19 7 10 1021.0 1021.0 13.6
22/06:30am 8.6 5.1 5.5 81 1.4 SSE 13 17 7 9 1020.3 1020.3 13.4
22/06:00am 8.0 4.0 5.0 81 1.3 SW 15 20 8 11 1019.6 1019.6 13.0
22/05:30am 6.4 2.5 3.6 82 1.2 S 13 15 7 8 1019.3 1019.3 13.0
22/05:00am 7.3 3.5 3.9 79 1.5 SW 13 17 7 9 1018.9 1018.9 13.0
22/04:30am 8.5 4.0 4.2 74 1.9 S 17 22 9 12 1018.3 1018.3 13.0
22/04:00am 9.1 4.0 4.0 70 2.2 S 20 30 11 16 1017.7 1017.7 13.0
22/03:30am 9.0 3.4 5.2 77 1.7 SSW 24 33 13 18 1017.6 1017.6 13.0
22/03:00am 7.6 4.9 5.6 87 0.9 WSW 9 13 5 7 1017.0 1017.0 13.0
22/02:30am 7.2 4.5 5.6 89 0.7 SSW 9 13 5 7 1016.9 1016.9 13.0
22/02:00am 7.2 5.7 5.2 87 0.9 S 2 6 1 3 1016.5 1016.5 13.0
22/01:30am 7.3 4.8 4.8 84 1.1 S 7 9 4 5 1016.5 1016.5 13.0
22/01:00am 8.9 6.3 6.0 82 1.3 SW 9 11 5 6 1016.4 1016.4 13.0
22/12:30am 9.4 5.6 6.0 79 1.6 SSW 15 22 8 12 1016.2 1016.2 13.0
22/12:00am 9.2 6.0 6.8 85 1.1 S 13 17 7 9 1016.0 1016.0 13.0
 
Date/Time
WST
Temp
°C
App
Temp
°C
Dew
Point
Rel
Hum
%
Delta-T
°C
Wind Press
QNH
hPa
Press
MSL
hPa
Rain
since 9 am
mm
Dir
 
Spd
km/h
Gust
km/h
Spd
kts
Gust
kts
21/11:30pm 8.7 5.7 6.2 84 1.1 SW 11 13 6 7 1015.8 1015.8 13.0
21/11:00pm 9.4 6.5 6.5 82 1.3 SSW 11 15 6 8 1015.6 1015.6 13.0
21/10:30pm 10.6 6.3 7.1 79 1.7 SSW 19 24 10 13 1015.6 1015.6 13.0
21/10:00pm 10.0 6.9 7.4 84 1.2 SSW 13 17 7 9 1015.1 1015.1 13.0
21/09:30pm 10.7 7.2 7.4 80 1.6 SSW 15 19 8 10 1015.1 1015.1 13.0
21/09:00pm 11.3 6.9 7.6 78 1.8 S 20 28 11 15 1014.8 1014.8 13.0
21/08:30pm 11.3 7.4 7.2 76 2.0 SW 17 20 9 11 1014.7 1014.7 13.0
21/08:00pm 11.6 7.7 7.1 74 2.2 SSW 17 20 9 11 1013.9 1013.9 13.0
21/07:30pm 12.0 7.7 7.1 72 2.4 S 19 24 10 13 1012.8 1012.8 13.0
21/07:00pm 12.3 8.1 7.6 73 2.3 SSW 19 22 10 12 1012.4 1012.4 13.0
21/06:30pm 12.4 9.1 8.1 75 2.1 S 15 20 8 11 1011.5 1011.5 13.0
21/06:00pm 12.5 8.6 8.8 78 1.9 SSW 19 26 10 14 1011.0 1011.0 13.0
21/05:30pm 12.6 7.8 8.9 78 1.9 SSW 24 32 13 17 1010.2 1010.2 13.0
21/05:00pm 12.7 6.7 8.8 77 2.0 SSW 30 39 16 21 1009.5 1009.5 13.0
21/04:30pm 12.9 6.5 9.4 79 1.8 SSW 33 43 18 23 1009.1 1009.1 13.0
21/04:00pm 13.4 7.3 9.7 78 1.9 SSW 32 43 17 23 1008.1 1008.1 13.0
21/03:49pm 13.6 7.9 9.7 77 2.0 SSW 30 48 16 26 1008.1 1008.1 13.0
21/03:30pm 13.5 7.4 9.8 78 1.9 SSW 32 41 17 22 1007.6 1007.6 13.0
21/03:00pm 13.0 7.7 11.1 88 1.0 SSW 30 43 16 23 1007.7 1007.7 13.0
21/02:30pm 13.5 9.5 11.9 90 0.9 SSW 24 33 13 18 1006.6 1006.6 13.0
21/02:00pm 13.2 10.7 12.3 94 0.5 SSW 17 24 9 13 1006.2 1006.2 12.4
21/01:30pm 13.5 13.0 12.6 94 0.5 NE 7 9 4 5 1005.4 1005.4 11.4
21/01:00pm 13.5 14.3 12.6 94 0.5 CALM 0 6 0 3 1005.7 1005.7 10.2
21/12:30pm 13.5 12.5 12.4 93 0.6 N 9 13 5 7 1006.4 1006.4 9.0
21/12:00pm 13.5 12.9 12.2 92 0.7 NNE 7 11 4 6 1006.3 1006.3 7.2
21/11:30am 13.6 13.2 12.5 93 0.6 WSW 6 11 3 6 1004.6 1004.6 5.6
21/11:00am 13.5 13.1 12.4 93 0.6 WSW 6 9 3 5 1005.9 1005.9 3.8
21/10:30am 13.9 13.0 12.6 92 0.7 WSW 9 13 5 7 1004.6 1004.6 2.6
21/10:00am 14.0 11.8 12.1 88 1.0 WSW 15 20 8 11 1004.8 1004.8 1.2
21/09:30am 14.1 10.1 11.8 86 1.2 SW 24 33 13 18 1003.8 1003.8 0.2
21/09:00am 13.7 9.5 12.4 92 0.7 SW 26 32 14 17 1003.8 1003.8 6.4
21/08:30am 14.0 11.1 12.8 92 0.7 WSW 20 32 11 17 1003.1 1003.1 5.6
21/08:08am 17.5 12.5 15.0 85 1.5 N 35 54 19 29 1001.5 1001.5 0.6
21/08:00am 18.0 12.1 14.7 81 1.9 NNE 39 54 21 29 1000.4 1000.4 0.0
21/07:45am 18.6 13.2 15.1 80 2.0 NNE 37 56 20 30 1000.3 1000.3 0.0
21/07:30am 18.1 13.5 15.2 83 1.7 NNE 33 48 18 26 1000.9 1000.9 0.0
21/07:00am 17.8 13.3 15.3 85 1.5 NNE 33 44 18 24 1001.4 1001.4 0.0
21/06:30am 17.8 13.5 15.8 88 1.2 NNE 33 46 18 25 1001.8 1001.8 0.0
21/06:00am 18.1 14.6 16.4 90 1.0 NNE 30 41 16 22 1002.0 1002.0 0.0
21/05:30am 18.0 14.5 15.5 85 1.5 NNE 28 37 15 20 1002.3 1002.3 0.0
21/05:00am 18.5 13.5 15.0 80 2.1 N 35 46 19 25 1002.2 1002.2 0.0
21/04:30am 18.6 13.2 14.9 79 2.2 N 37 50 20 27 1002.6 1002.6 0.0
21/04:10am 19.0 13.9 14.9 77 2.4 N 35 54 19 29 1002.5 1002.5 0.0
21/04:00am 18.6 15.0 15.3 81 1.9 N 28 39 15 21 1002.6 1002.6 0.0
21/03:30am 18.3 14.8 16.5 89 1.1 N 30 43 16 23 1003.3 1003.3 0.0
21/03:00am 17.9 15.6 16.6 92 0.8 N 24 32 13 17 1003.7 1003.7 0.0
21/02:30am 17.5 15.9 16.4 93 0.7 N 20 28 11 15 1004.4 1004.4 0.0
21/02:00am 17.7 15.4 16.6 93 0.7 N 24 32 13 17 1005.0 1005.0 0.0
21/01:30am 17.9 15.2 16.6 92 0.8 N 26 33 14 18 1005.9 1005.9 0.0
21/01:00am 17.9 15.1 16.3 90 1.0 N 26 37 14 20 1006.5 1006.5 0.0
21/12:30am 18.0 14.7 16.0 88 1.2 N 28 35 15 19 1007.1 1007.1 0.0
21/12:00am 18.2 15.1 15.7 85 1.5 N 26 33 14 18 1007.3 1007.3 0.0
 
Date/Time
WST
Temp
°C
App
Temp
°C
Dew
Point
Rel
Hum
%
Delta-T
°C
Wind Press
QNH
hPa
Press
MSL
hPa
Rain
since 9 am
mm
Dir
 
Spd
km/h
Gust
km/h
Spd
kts
Gust
kts
20/11:30pm 18.5 15.6 15.0 80 2.0 N 24 35 13 19 1007.8 1007.8 0.0
20/11:05pm 18.9 15.1 14.8 77 2.4 N 28 46 15 25 1008.4 1008.4 0.0
20/11:00pm 19.0 14.9 14.9 77 2.4 N 30 46 16 25 1008.6 1008.6 0.0
20/10:30pm 18.9 15.3 15.2 79 2.2 N 28 37 15 20 1008.9 1008.9 0.0
20/10:00pm 18.5 15.5 16.9 90 1.0 N 28 37 15 20 1009.2 1009.2 0.0
20/09:30pm 18.7 16.8 17.6 93 0.7 N 24 32 13 17 1009.7 1009.7 0.0
20/09:00pm 18.4 15.9 17.1 92 0.8 N 26 35 14 19 1010.1 1010.1 0.0
20/08:30pm 18.5 17.2 17.2 92 0.8 N 20 30 11 16 1010.2 1010.2 0.0
20/08:00pm 18.2 17.2 16.5 90 1.0 N 17 20 9 11 1009.9 1009.9 0.0
20/07:30pm 18.9 18.3 16.7 87 1.3 N 15 17 8 9 1010.1 1010.1 0.0
20/07:00pm 18.8 17.8 15.7 82 1.8 N 15 20 8 11 1009.5 1009.5 0.0
20/06:30pm 18.8 16.7 14.7 77 2.4 NNE 19 24 10 13 1009.5 1009.5 0.0

Other Formats:

Comma delimited format used in spreadsheet applications
http://www.bom.gov.au/fwo/IDW60801/IDW60801.95611.axf

JavaScript Object Notation format (JSON) in row-major order
http://www.bom.gov.au/fwo/IDW60801/IDW60801.95611.json